sensor_id;sensor_type;location;lat;lon;timestamp;P1;durP1;ratioP1;P2;durP2;ratioP2
74898;SDS011;63458;48.210;16.338;2022-12-18T00:01:22;12.52;;;6.00;;
74898;SDS011;63458;48.210;16.338;2022-12-18T00:03:49;11.13;;;6.15;;
74898;SDS011;63458;48.210;16.338;2022-12-18T00:06:15;13.15;;;6.57;;
74898;SDS011;63458;48.210;16.338;2022-12-18T00:08:42;13.50;;;6.22;;
74898;SDS011;63458;48.210;16.338;2022-12-18T00:11:09;11.88;;;6.15;;
74898;SDS011;63458;48.210;16.338;2022-12-18T00:13:36;11.30;;;6.30;;
74898;SDS011;63458;48.210;16.338;2022-12-18T00:16:12;12.43;;;5.85;;
74898;SDS011;63458;48.210;16.338;2022-12-18T00:18:39;12.30;;;6.22;;
74898;SDS011;63458;48.210;16.338;2022-12-18T00:21:05;14.73;;;6.60;;
74898;SDS011;63458;48.210;16.338;2022-12-18T00:23:32;11.15;;;6.20;;
74898;SDS011;63458;48.210;16.338;2022-12-18T00:26:00;13.07;;;6.80;;
74898;SDS011;63458;48.210;16.338;2022-12-18T00:28:26;10.63;;;5.57;;
74898;SDS011;63458;48.210;16.338;2022-12-18T00:33:27;11.95;;;6.07;;
74898;SDS011;63458;48.210;16.338;2022-12-18T00:35:53;11.68;;;5.15;;
74898;SDS011;63458;48.210;16.338;2022-12-18T00:38:19;11.23;;;5.78;;
74898;SDS011;63458;48.210;16.338;2022-12-18T00:40:45;11.00;;;5.40;;
74898;SDS011;63458;48.210;16.338;2022-12-18T00:43:11;10.38;;;5.20;;
74898;SDS011;63458;48.210;16.338;2022-12-18T00:45:37;11.55;;;5.32;;
74898;SDS011;63458;48.210;16.338;2022-12-18T00:48:03;12.50;;;5.93;;
74898;SDS011;63458;48.210;16.338;2022-12-18T00:50:29;10.63;;;5.60;;
74898;SDS011;63458;48.210;16.338;2022-12-18T00:52:55;12.23;;;5.72;;
74898;SDS011;63458;48.210;16.338;2022-12-18T00:55:21;9.32;;;5.03;;
74898;SDS011;63458;48.210;16.338;2022-12-18T00:57:48;8.93;;;5.30;;
74898;SDS011;63458;48.210;16.338;2022-12-18T01:00:14;11.35;;;5.80;;
74898;SDS011;63458;48.210;16.338;2022-12-18T01:02:41;10.25;;;5.80;;
74898;SDS011;63458;48.210;16.338;2022-12-18T01:05:07;10.20;;;5.03;;
74898;SDS011;63458;48.210;16.338;2022-12-18T01:07:33;11.48;;;5.68;;
74898;SDS011;63458;48.210;16.338;2022-12-18T01:09:59;11.90;;;5.35;;
74898;SDS011;63458;48.210;16.338;2022-12-18T01:12:25;10.93;;;5.68;;
74898;SDS011;63458;48.210;16.338;2022-12-18T01:14:51;14.18;;;6.07;;
74898;SDS011;63458;48.210;16.338;2022-12-18T01:17:18;11.95;;;5.82;;
74898;SDS011;63458;48.210;16.338;2022-12-18T01:19:44;10.68;;;6.35;;
74898;SDS011;63458;48.210;16.338;2022-12-18T01:22:10;13.93;;;7.35;;
74898;SDS011;63458;48.210;16.338;2022-12-18T01:24:36;14.43;;;7.53;;
74898;SDS011;63458;48.210;16.338;2022-12-18T01:27:02;12.68;;;6.82;;
74898;SDS011;63458;48.210;16.338;2022-12-18T01:29:28;15.60;;;7.97;;
74898;SDS011;63458;48.210;16.338;2022-12-18T01:31:55;15.40;;;8.18;;
74898;SDS011;63458;48.210;16.338;2022-12-18T01:34:21;16.20;;;8.52;;
74898;SDS011;63458;48.210;16.338;2022-12-18T01:36:47;16.30;;;8.38;;
74898;SDS011;63458;48.210;16.338;2022-12-18T01:39:13;15.05;;;8.35;;
74898;SDS011;63458;48.210;16.338;2022-12-18T01:41:40;17.20;;;8.77;;
74898;SDS011;63458;48.210;16.338;2022-12-18T01:47:12;15.13;;;7.90;;
74898;SDS011;63458;48.210;16.338;2022-12-18T01:49:39;17.98;;;9.18;;
74898;SDS011;63458;48.210;16.338;2022-12-18T01:52:06;16.95;;;9.73;;
74898;SDS011;63458;48.210;16.338;2022-12-18T01:54:32;17.05;;;8.82;;
74898;SDS011;63458;48.210;16.338;2022-12-18T01:56:59;18.35;;;10.00;;
74898;SDS011;63458;48.210;16.338;2022-12-18T01:59:26;18.35;;;9.30;;
74898;SDS011;63458;48.210;16.338;2022-12-18T02:01:52;18.92;;;9.60;;
74898;SDS011;63458;48.210;16.338;2022-12-18T02:04:22;17.40;;;8.65;;
74898;SDS011;63458;48.210;16.338;2022-12-18T02:09:33;17.65;;;9.75;;
74898;SDS011;63458;48.210;16.338;2022-12-18T02:17:11;20.65;;;10.90;;
74898;SDS011;63458;48.210;16.338;2022-12-18T02:22:24;17.60;;;9.25;;
74898;SDS011;63458;48.210;16.338;2022-12-18T02:27:37;19.23;;;10.90;;
74898;SDS011;63458;48.210;16.338;2022-12-18T02:30:04;16.77;;;9.38;;
74898;SDS011;63458;48.210;16.338;2022-12-18T02:32:32;20.38;;;8.23;;
74898;SDS011;63458;48.210;16.338;2022-12-18T02:35:00;19.35;;;10.00;;
74898;SDS011;63458;48.210;16.338;2022-12-18T02:37:28;22.13;;;10.32;;
74898;SDS011;63458;48.210;16.338;2022-12-18T02:39:55;15.90;;;8.88;;
74898;SDS011;63458;48.210;16.338;2022-12-18T02:42:22;21.10;;;10.40;;
74898;SDS011;63458;48.210;16.338;2022-12-18T02:44:49;19.92;;;9.23;;
74898;SDS011;63458;48.210;16.338;2022-12-18T02:47:20;19.90;;;10.15;;
74898;SDS011;63458;48.210;16.338;2022-12-18T02:49:56;17.67;;;10.10;;
74898;SDS011;63458;48.210;16.338;2022-12-18T02:52:30;19.20;;;10.27;;
74898;SDS011;63458;48.210;16.338;2022-12-18T02:55:00;19.80;;;9.63;;
74898;SDS011;63458;48.210;16.338;2022-12-18T03:00:18;17.25;;;9.25;;
74898;SDS011;63458;48.210;16.338;2022-12-18T03:02:54;18.08;;;9.43;;
74898;SDS011;63458;48.210;16.338;2022-12-18T03:05:30;18.42;;;9.32;;
74898;SDS011;63458;48.210;16.338;2022-12-18T03:08:15;16.90;;;8.80;;
74898;SDS011;63458;48.210;16.338;2022-12-18T03:10:45;17.50;;;9.95;;
74898;SDS011;63458;48.210;16.338;2022-12-18T03:13:23;17.20;;;9.70;;
74898;SDS011;63458;48.210;16.338;2022-12-18T03:15:51;20.08;;;9.98;;
74898;SDS011;63458;48.210;16.338;2022-12-18T03:20:45;19.42;;;10.18;;
74898;SDS011;63458;48.210;16.338;2022-12-18T03:23:15;15.50;;;9.15;;
74898;SDS011;63458;48.210;16.338;2022-12-18T03:25:42;18.25;;;8.95;;
74898;SDS011;63458;48.210;16.338;2022-12-18T03:28:09;21.23;;;9.93;;
74898;SDS011;63458;48.210;16.338;2022-12-18T03:30:37;20.30;;;10.05;;
74898;SDS011;63458;48.210;16.338;2022-12-18T03:33:08;17.95;;;9.18;;
74898;SDS011;63458;48.210;16.338;2022-12-18T03:35:35;18.90;;;8.73;;
74898;SDS011;63458;48.210;16.338;2022-12-18T03:38:02;17.48;;;8.70;;
74898;SDS011;63458;48.210;16.338;2022-12-18T03:40:37;19.10;;;9.82;;
74898;SDS011;63458;48.210;16.338;2022-12-18T03:43:09;18.95;;;8.82;;
74898;SDS011;63458;48.210;16.338;2022-12-18T03:45:37;17.63;;;9.48;;
74898;SDS011;63458;48.210;16.338;2022-12-18T03:53:14;17.77;;;9.10;;
74898;SDS011;63458;48.210;16.338;2022-12-18T03:55:43;18.73;;;9.80;;
74898;SDS011;63458;48.210;16.338;2022-12-18T03:58:09;19.83;;;10.60;;
74898;SDS011;63458;48.210;16.338;2022-12-18T04:00:38;17.15;;;10.25;;
74898;SDS011;63458;48.210;16.338;2022-12-18T04:03:05;21.77;;;9.88;;
74898;SDS011;63458;48.210;16.338;2022-12-18T04:05:32;18.45;;;9.98;;
74898;SDS011;63458;48.210;16.338;2022-12-18T04:07:58;18.60;;;9.48;;
74898;SDS011;63458;48.210;16.338;2022-12-18T04:10:25;17.10;;;9.35;;
74898;SDS011;63458;48.210;16.338;2022-12-18T04:12:51;20.55;;;9.55;;
74898;SDS011;63458;48.210;16.338;2022-12-18T04:15:21;21.67;;;10.65;;
74898;SDS011;63458;48.210;16.338;2022-12-18T04:17:47;18.33;;;9.70;;
74898;SDS011;63458;48.210;16.338;2022-12-18T04:20:14;17.48;;;9.20;;
74898;SDS011;63458;48.210;16.338;2022-12-18T04:22:40;18.75;;;9.00;;
74898;SDS011;63458;48.210;16.338;2022-12-18T04:25:06;16.23;;;9.13;;
74898;SDS011;63458;48.210;16.338;2022-12-18T04:27:32;17.48;;;9.40;;
74898;SDS011;63458;48.210;16.338;2022-12-18T04:29:58;17.80;;;9.73;;
74898;SDS011;63458;48.210;16.338;2022-12-18T04:32:24;16.45;;;8.80;;
74898;SDS011;63458;48.210;16.338;2022-12-18T04:34:50;19.50;;;8.63;;
74898;SDS011;63458;48.210;16.338;2022-12-18T04:37:16;19.73;;;9.93;;
74898;SDS011;63458;48.210;16.338;2022-12-18T04:39:42;17.98;;;10.00;;
74898;SDS011;63458;48.210;16.338;2022-12-18T04:42:08;20.63;;;9.75;;
74898;SDS011;63458;48.210;16.338;2022-12-18T04:44:34;19.10;;;10.25;;
74898;SDS011;63458;48.210;16.338;2022-12-18T04:47:00;19.00;;;9.40;;
74898;SDS011;63458;48.210;16.338;2022-12-18T04:49:26;16.08;;;9.50;;
74898;SDS011;63458;48.210;16.338;2022-12-18T04:51:52;20.25;;;10.63;;
74898;SDS011;63458;48.210;16.338;2022-12-18T04:54:18;17.45;;;9.45;;
74898;SDS011;63458;48.210;16.338;2022-12-18T04:56:44;20.10;;;10.10;;
74898;SDS011;63458;48.210;16.338;2022-12-18T04:59:10;17.60;;;9.82;;
74898;SDS011;63458;48.210;16.338;2022-12-18T05:01:36;19.30;;;9.98;;
74898;SDS011;63458;48.210;16.338;2022-12-18T05:04:02;19.17;;;9.75;;
74898;SDS011;63458;48.210;16.338;2022-12-18T05:06:28;21.50;;;9.98;;
74898;SDS011;63458;48.210;16.338;2022-12-18T05:08:54;20.70;;;9.85;;
74898;SDS011;63458;48.210;16.338;2022-12-18T05:11:20;21.53;;;10.80;;
74898;SDS011;63458;48.210;16.338;2022-12-18T05:13:46;20.48;;;9.95;;
74898;SDS011;63458;48.210;16.338;2022-12-18T05:16:13;20.45;;;10.55;;
74898;SDS011;63458;48.210;16.338;2022-12-18T05:18:39;19.23;;;11.13;;
74898;SDS011;63458;48.210;16.338;2022-12-18T05:21:05;20.60;;;9.52;;
74898;SDS011;63458;48.210;16.338;2022-12-18T05:23:31;20.52;;;10.18;;
74898;SDS011;63458;48.210;16.338;2022-12-18T05:25:58;19.70;;;10.45;;
74898;SDS011;63458;48.210;16.338;2022-12-18T05:28:25;19.63;;;10.43;;
74898;SDS011;63458;48.210;16.338;2022-12-18T05:30:54;19.75;;;11.35;;
74898;SDS011;63458;48.210;16.338;2022-12-18T05:33:21;20.77;;;10.25;;
74898;SDS011;63458;48.210;16.338;2022-12-18T05:35:54;21.27;;;10.65;;
74898;SDS011;63458;48.210;16.338;2022-12-18T05:38:21;18.30;;;10.18;;
74898;SDS011;63458;48.210;16.338;2022-12-18T05:40:47;21.15;;;10.18;;
74898;SDS011;63458;48.210;16.338;2022-12-18T05:43:13;20.10;;;9.93;;
74898;SDS011;63458;48.210;16.338;2022-12-18T05:45:40;18.25;;;9.43;;
74898;SDS011;63458;48.210;16.338;2022-12-18T05:48:06;18.13;;;9.23;;
74898;SDS011;63458;48.210;16.338;2022-12-18T05:50:39;22.58;;;9.98;;
74898;SDS011;63458;48.210;16.338;2022-12-18T05:53:05;16.70;;;8.95;;
74898;SDS011;63458;48.210;16.338;2022-12-18T05:55:35;22.13;;;10.55;;
74898;SDS011;63458;48.210;16.338;2022-12-18T05:58:02;19.05;;;10.00;;
74898;SDS011;63458;48.210;16.338;2022-12-18T06:00:28;18.30;;;9.95;;
74898;SDS011;63458;48.210;16.338;2022-12-18T06:02:54;20.33;;;10.52;;
74898;SDS011;63458;48.210;16.338;2022-12-18T06:05:20;18.65;;;9.80;;
74898;SDS011;63458;48.210;16.338;2022-12-18T06:07:46;21.05;;;10.50;;
74898;SDS011;63458;48.210;16.338;2022-12-18T06:10:12;21.63;;;10.57;;
74898;SDS011;63458;48.210;16.338;2022-12-18T06:12:38;19.55;;;9.23;;
74898;SDS011;63458;48.210;16.338;2022-12-18T06:15:04;21.13;;;10.38;;
74898;SDS011;63458;48.210;16.338;2022-12-18T06:17:31;19.75;;;10.02;;
74898;SDS011;63458;48.210;16.338;2022-12-18T06:19:57;19.30;;;9.95;;
74898;SDS011;63458;48.210;16.338;2022-12-18T06:22:23;21.80;;;10.55;;
74898;SDS011;63458;48.210;16.338;2022-12-18T06:24:49;21.92;;;10.52;;
74898;SDS011;63458;48.210;16.338;2022-12-18T06:27:15;23.77;;;10.38;;
74898;SDS011;63458;48.210;16.338;2022-12-18T06:29:41;18.05;;;10.40;;
74898;SDS011;63458;48.210;16.338;2022-12-18T06:32:07;20.20;;;10.32;;
74898;SDS011;63458;48.210;16.338;2022-12-18T06:34:33;20.08;;;10.30;;
74898;SDS011;63458;48.210;16.338;2022-12-18T06:37:00;20.95;;;9.65;;
74898;SDS011;63458;48.210;16.338;2022-12-18T06:39:29;18.35;;;10.18;;
74898;SDS011;63458;48.210;16.338;2022-12-18T06:41:55;19.10;;;10.13;;
74898;SDS011;63458;48.210;16.338;2022-12-18T06:44:21;23.42;;;12.27;;
74898;SDS011;63458;48.210;16.338;2022-12-18T06:46:47;21.77;;;10.68;;
74898;SDS011;63458;48.210;16.338;2022-12-18T06:49:13;21.05;;;11.00;;
74898;SDS011;63458;48.210;16.338;2022-12-18T06:51:40;17.98;;;9.95;;
74898;SDS011;63458;48.210;16.338;2022-12-18T06:54:07;20.85;;;11.55;;
74898;SDS011;63458;48.210;16.338;2022-12-18T06:56:33;23.98;;;11.45;;
74898;SDS011;63458;48.210;16.338;2022-12-18T06:58:59;18.65;;;10.20;;
74898;SDS011;63458;48.210;16.338;2022-12-18T07:01:25;22.85;;;12.27;;
74898;SDS011;63458;48.210;16.338;2022-12-18T07:03:51;23.80;;;11.75;;
74898;SDS011;63458;48.210;16.338;2022-12-18T07:06:19;21.33;;;10.35;;
74898;SDS011;63458;48.210;16.338;2022-12-18T07:08:46;24.58;;;11.70;;
74898;SDS011;63458;48.210;16.338;2022-12-18T07:11:12;24.27;;;12.10;;
74898;SDS011;63458;48.210;16.338;2022-12-18T07:13:38;23.83;;;12.13;;
74898;SDS011;63458;48.210;16.338;2022-12-18T07:16:08;22.27;;;11.73;;
74898;SDS011;63458;48.210;16.338;2022-12-18T07:18:34;21.25;;;11.93;;
74898;SDS011;63458;48.210;16.338;2022-12-18T07:21:10;21.73;;;12.23;;
74898;SDS011;63458;48.210;16.338;2022-12-18T07:23:37;21.13;;;11.70;;
74898;SDS011;63458;48.210;16.338;2022-12-18T07:26:03;22.00;;;11.70;;
74898;SDS011;63458;48.210;16.338;2022-12-18T07:28:30;22.48;;;11.65;;
74898;SDS011;63458;48.210;16.338;2022-12-18T07:30:56;23.63;;;11.57;;
74898;SDS011;63458;48.210;16.338;2022-12-18T07:33:23;23.48;;;11.57;;
74898;SDS011;63458;48.210;16.338;2022-12-18T07:35:50;26.10;;;12.73;;
74898;SDS011;63458;48.210;16.338;2022-12-18T07:38:16;24.73;;;12.23;;
74898;SDS011;63458;48.210;16.338;2022-12-18T07:40:42;24.98;;;12.88;;
74898;SDS011;63458;48.210;16.338;2022-12-18T07:43:08;23.45;;;12.65;;
74898;SDS011;63458;48.210;16.338;2022-12-18T07:45:34;22.77;;;10.90;;
74898;SDS011;63458;48.210;16.338;2022-12-18T07:48:01;25.17;;;13.07;;
74898;SDS011;63458;48.210;16.338;2022-12-18T07:50:27;24.08;;;11.73;;
74898;SDS011;63458;48.210;16.338;2022-12-18T07:52:53;21.25;;;12.13;;
74898;SDS011;63458;48.210;16.338;2022-12-18T07:55:19;21.55;;;10.98;;
74898;SDS011;63458;48.210;16.338;2022-12-18T07:57:45;21.10;;;11.82;;
74898;SDS011;63458;48.210;16.338;2022-12-18T08:00:11;28.60;;;14.82;;
74898;SDS011;63458;48.210;16.338;2022-12-18T08:02:37;22.85;;;12.13;;
74898;SDS011;63458;48.210;16.338;2022-12-18T08:05:03;22.50;;;12.05;;
74898;SDS011;63458;48.210;16.338;2022-12-18T08:07:30;23.80;;;11.30;;
74898;SDS011;63458;48.210;16.338;2022-12-18T08:09:55;21.00;;;11.70;;
74898;SDS011;63458;48.210;16.338;2022-12-18T08:12:22;23.35;;;12.40;;
74898;SDS011;63458;48.210;16.338;2022-12-18T08:14:48;27.17;;;13.10;;
74898;SDS011;63458;48.210;16.338;2022-12-18T08:17:13;21.40;;;11.02;;
74898;SDS011;63458;48.210;16.338;2022-12-18T08:19:39;26.52;;;12.82;;
74898;SDS011;63458;48.210;16.338;2022-12-18T08:22:05;26.42;;;14.32;;
74898;SDS011;63458;48.210;16.338;2022-12-18T08:24:31;23.55;;;12.88;;
74898;SDS011;63458;48.210;16.338;2022-12-18T08:26:57;25.05;;;13.18;;
74898;SDS011;63458;48.210;16.338;2022-12-18T08:29:23;23.60;;;12.45;;
74898;SDS011;63458;48.210;16.338;2022-12-18T08:31:49;26.38;;;13.18;;
74898;SDS011;63458;48.210;16.338;2022-12-18T08:34:16;24.63;;;13.35;;
74898;SDS011;63458;48.210;16.338;2022-12-18T08:36:41;29.75;;;15.10;;
74898;SDS011;63458;48.210;16.338;2022-12-18T08:39:07;24.13;;;14.05;;
74898;SDS011;63458;48.210;16.338;2022-12-18T08:41:33;26.67;;;14.65;;
74898;SDS011;63458;48.210;16.338;2022-12-18T08:43:59;24.98;;;13.85;;
74898;SDS011;63458;48.210;16.338;2022-12-18T08:46:44;28.30;;;14.60;;
74898;SDS011;63458;48.210;16.338;2022-12-18T08:49:10;26.65;;;14.52;;
74898;SDS011;63458;48.210;16.338;2022-12-18T08:51:37;25.83;;;15.02;;
74898;SDS011;63458;48.210;16.338;2022-12-18T08:54:03;28.33;;;14.95;;
74898;SDS011;63458;48.210;16.338;2022-12-18T08:56:30;27.48;;;14.32;;
74898;SDS011;63458;48.210;16.338;2022-12-18T08:58:56;28.70;;;15.23;;
74898;SDS011;63458;48.210;16.338;2022-12-18T09:01:22;25.10;;;14.02;;
74898;SDS011;63458;48.210;16.338;2022-12-18T09:03:49;24.15;;;13.70;;
74898;SDS011;63458;48.210;16.338;2022-12-18T09:06:16;27.35;;;14.43;;
74898;SDS011;63458;48.210;16.338;2022-12-18T09:08:43;27.70;;;14.73;;
74898;SDS011;63458;48.210;16.338;2022-12-18T09:11:13;29.75;;;15.40;;
74898;SDS011;63458;48.210;16.338;2022-12-18T09:13:39;26.00;;;14.65;;
74898;SDS011;63458;48.210;16.338;2022-12-18T09:16:05;29.80;;;15.75;;
74898;SDS011;63458;48.210;16.338;2022-12-18T09:18:31;30.48;;;15.00;;
74898;SDS011;63458;48.210;16.338;2022-12-18T09:20:57;27.38;;;15.70;;
74898;SDS011;63458;48.210;16.338;2022-12-18T09:23:23;30.48;;;15.45;;
74898;SDS011;63458;48.210;16.338;2022-12-18T09:25:49;27.88;;;15.88;;
74898;SDS011;63458;48.210;16.338;2022-12-18T09:28:16;27.80;;;14.60;;
74898;SDS011;63458;48.210;16.338;2022-12-18T09:30:46;27.35;;;14.10;;
74898;SDS011;63458;48.210;16.338;2022-12-18T09:33:13;26.42;;;13.23;;
74898;SDS011;63458;48.210;16.338;2022-12-18T09:35:40;29.23;;;16.00;;
74898;SDS011;63458;48.210;16.338;2022-12-18T09:38:06;29.55;;;16.98;;
74898;SDS011;63458;48.210;16.338;2022-12-18T09:40:39;34.22;;;17.10;;
74898;SDS011;63458;48.210;16.338;2022-12-18T09:43:06;28.83;;;16.15;;
74898;SDS011;63458;48.210;16.338;2022-12-18T09:45:40;29.58;;;15.73;;
74898;SDS011;63458;48.210;16.338;2022-12-18T09:48:10;27.92;;;15.13;;
74898;SDS011;63458;48.210;16.338;2022-12-18T09:50:40;26.33;;;14.23;;
74898;SDS011;63458;48.210;16.338;2022-12-18T09:53:07;25.63;;;14.40;;
74898;SDS011;63458;48.210;16.338;2022-12-18T09:55:38;27.20;;;13.63;;
74898;SDS011;63458;48.210;16.338;2022-12-18T09:58:14;35.58;;;17.98;;
74898;SDS011;63458;48.210;16.338;2022-12-18T10:00:41;31.48;;;18.23;;
74898;SDS011;63458;48.210;16.338;2022-12-18T10:03:14;28.38;;;16.63;;
74898;SDS011;63458;48.210;16.338;2022-12-18T10:20:45;29.50;;;15.10;;
74898;SDS011;63458;48.210;16.338;2022-12-18T10:23:15;27.65;;;14.35;;
74898;SDS011;63458;48.210;16.338;2022-12-18T10:28:19;29.77;;;15.38;;
74898;SDS011;63458;48.210;16.338;2022-12-18T10:30:46;30.15;;;15.48;;
74898;SDS011;63458;48.210;16.338;2022-12-18T10:33:13;30.90;;;15.23;;
74898;SDS011;63458;48.210;16.338;2022-12-18T10:35:41;30.30;;;15.75;;
74898;SDS011;63458;48.210;16.338;2022-12-18T10:40:48;26.58;;;14.23;;
74898;SDS011;63458;48.210;16.338;2022-12-18T10:43:15;27.95;;;13.70;;
74898;SDS011;63458;48.210;16.338;2022-12-18T10:45:41;26.13;;;14.40;;
74898;SDS011;63458;48.210;16.338;2022-12-18T10:48:20;31.60;;;16.70;;
74898;SDS011;63458;48.210;16.338;2022-12-18T10:50:50;29.38;;;14.98;;
74898;SDS011;63458;48.210;16.338;2022-12-18T10:53:24;26.02;;;14.23;;
74898;SDS011;63458;48.210;16.338;2022-12-18T10:55:50;29.25;;;14.45;;
74898;SDS011;63458;48.210;16.338;2022-12-18T11:03:41;29.13;;;15.32;;
74898;SDS011;63458;48.210;16.338;2022-12-18T11:08:34;26.48;;;13.75;;
74898;SDS011;63458;48.210;16.338;2022-12-18T11:11:00;26.70;;;13.32;;
74898;SDS011;63458;48.210;16.338;2022-12-18T11:13:28;29.90;;;13.45;;
74898;SDS011;63458;48.210;16.338;2022-12-18T11:15:54;28.90;;;13.35;;
74898;SDS011;63458;48.210;16.338;2022-12-18T11:20:50;30.20;;;14.52;;
74898;SDS011;63458;48.210;16.338;2022-12-18T11:23:16;36.88;;;19.92;;
74898;SDS011;63458;48.210;16.338;2022-12-18T11:25:51;29.95;;;13.57;;
74898;SDS011;63458;48.210;16.338;2022-12-18T11:28:37;27.48;;;14.43;;
74898;SDS011;63458;48.210;16.338;2022-12-18T11:31:11;29.85;;;15.80;;
74898;SDS011;63458;48.210;16.338;2022-12-18T11:33:38;30.38;;;15.30;;
74898;SDS011;63458;48.210;16.338;2022-12-18T11:36:05;31.25;;;15.23;;
74898;SDS011;63458;48.210;16.338;2022-12-18T11:38:34;30.08;;;14.10;;
74898;SDS011;63458;48.210;16.338;2022-12-18T11:41:05;33.90;;;15.80;;
74898;SDS011;63458;48.210;16.338;2022-12-18T11:43:46;27.08;;;14.23;;
74898;SDS011;63458;48.210;16.338;2022-12-18T11:46:15;31.88;;;14.43;;
74898;SDS011;63458;48.210;16.338;2022-12-18T11:48:44;28.58;;;15.07;;
74898;SDS011;63458;48.210;16.338;2022-12-18T11:51:14;31.17;;;15.43;;
74898;SDS011;63458;48.210;16.338;2022-12-18T11:53:42;31.55;;;14.52;;
74898;SDS011;63458;48.210;16.338;2022-12-18T11:56:16;28.77;;;14.75;;
74898;SDS011;63458;48.210;16.338;2022-12-18T11:58:47;28.45;;;14.57;;
74898;SDS011;63458;48.210;16.338;2022-12-18T12:14:14;29.55;;;13.38;;
74898;SDS011;63458;48.210;16.338;2022-12-18T12:21:43;28.48;;;16.23;;
74898;SDS011;63458;48.210;16.338;2022-12-18T12:24:24;31.90;;;15.65;;
74898;SDS011;63458;48.210;16.338;2022-12-18T12:29:46;29.48;;;15.18;;
74898;SDS011;63458;48.210;16.338;2022-12-18T12:32:29;30.00;;;15.85;;
74898;SDS011;63458;48.210;16.338;2022-12-18T12:37:55;32.58;;;15.30;;
74898;SDS011;63458;48.210;16.338;2022-12-18T12:40:25;32.05;;;16.27;;
74898;SDS011;63458;48.210;16.338;2022-12-18T12:42:54;30.02;;;16.10;;
74898;SDS011;63458;48.210;16.338;2022-12-18T12:50:51;28.33;;;15.52;;
74898;SDS011;63458;48.210;16.338;2022-12-18T12:53:23;28.48;;;15.77;;
74898;SDS011;63458;48.210;16.338;2022-12-18T12:55:52;27.98;;;15.13;;
74898;SDS011;63458;48.210;16.338;2022-12-18T12:58:31;31.10;;;16.20;;
74898;SDS011;63458;48.210;16.338;2022-12-18T13:01:06;30.88;;;15.75;;
74898;SDS011;63458;48.210;16.338;2022-12-18T13:08:53;30.73;;;15.75;;
74898;SDS011;63458;48.210;16.338;2022-12-18T13:14:23;28.95;;;16.25;;
74898;SDS011;63458;48.210;16.338;2022-12-18T13:16:50;31.52;;;17.35;;
74898;SDS011;63458;48.210;16.338;2022-12-18T13:19:23;31.60;;;15.40;;
74898;SDS011;63458;48.210;16.338;2022-12-18T13:21:54;32.35;;;17.52;;
74898;SDS011;63458;48.210;16.338;2022-12-18T13:24:27;28.45;;;16.33;;
74898;SDS011;63458;48.210;16.338;2022-12-18T13:26:55;32.20;;;16.40;;
74898;SDS011;63458;48.210;16.338;2022-12-18T13:32:15;29.77;;;14.93;;
74898;SDS011;63458;48.210;16.338;2022-12-18T13:34:44;25.77;;;13.85;;
74898;SDS011;63458;48.210;16.338;2022-12-18T13:39:55;34.72;;;16.48;;
74898;SDS011;63458;48.210;16.338;2022-12-18T13:42:31;30.13;;;15.00;;
74898;SDS011;63458;48.210;16.338;2022-12-18T13:48:01;27.80;;;13.98;;
74898;SDS011;63458;48.210;16.338;2022-12-18T13:50:28;27.95;;;14.88;;
74898;SDS011;63458;48.210;16.338;2022-12-18T13:52:55;28.77;;;14.48;;
74898;SDS011;63458;48.210;16.338;2022-12-18T13:55:21;29.52;;;16.15;;
74898;SDS011;63458;48.210;16.338;2022-12-18T13:57:47;29.63;;;15.65;;
74898;SDS011;63458;48.210;16.338;2022-12-18T14:02:44;32.33;;;17.00;;
74898;SDS011;63458;48.210;16.338;2022-12-18T14:08:17;30.33;;;15.25;;
74898;SDS011;63458;48.210;16.338;2022-12-18T14:10:47;33.67;;;15.52;;
74898;SDS011;63458;48.210;16.338;2022-12-18T14:13:19;32.55;;;15.95;;
74898;SDS011;63458;48.210;16.338;2022-12-18T14:15:47;34.03;;;16.98;;
74898;SDS011;63458;48.210;16.338;2022-12-18T14:18:18;31.27;;;16.45;;
74898;SDS011;63458;48.210;16.338;2022-12-18T14:20:45;34.75;;;17.17;;
74898;SDS011;63458;48.210;16.338;2022-12-18T14:25:55;30.52;;;16.05;;
74898;SDS011;63458;48.210;16.338;2022-12-18T14:28:21;37.55;;;18.75;;
74898;SDS011;63458;48.210;16.338;2022-12-18T14:30:48;34.38;;;16.33;;
74898;SDS011;63458;48.210;16.338;2022-12-18T14:33:15;37.78;;;18.52;;
74898;SDS011;63458;48.210;16.338;2022-12-18T14:35:51;34.05;;;18.27;;
74898;SDS011;63458;48.210;16.338;2022-12-18T14:38:22;33.75;;;17.67;;
74898;SDS011;63458;48.210;16.338;2022-12-18T14:40:52;39.35;;;18.63;;
74898;SDS011;63458;48.210;16.338;2022-12-18T14:43:18;33.63;;;17.13;;
74898;SDS011;63458;48.210;16.338;2022-12-18T14:45:45;32.25;;;16.45;;
74898;SDS011;63458;48.210;16.338;2022-12-18T14:50:37;47.30;;;22.08;;
74898;SDS011;63458;48.210;16.338;2022-12-18T14:53:03;36.50;;;18.83;;
74898;SDS011;63458;48.210;16.338;2022-12-18T14:55:29;39.35;;;17.60;;
74898;SDS011;63458;48.210;16.338;2022-12-18T14:57:55;37.75;;;18.50;;
74898;SDS011;63458;48.210;16.338;2022-12-18T15:00:22;34.50;;;17.83;;
74898;SDS011;63458;48.210;16.338;2022-12-18T15:02:50;35.63;;;17.58;;
74898;SDS011;63458;48.210;16.338;2022-12-18T15:05:19;34.72;;;16.90;;
74898;SDS011;63458;48.210;16.338;2022-12-18T15:07:47;34.55;;;18.33;;
74898;SDS011;63458;48.210;16.338;2022-12-18T15:10:15;40.85;;;17.27;;
74898;SDS011;63458;48.210;16.338;2022-12-18T15:12:49;33.25;;;16.50;;
74898;SDS011;63458;48.210;16.338;2022-12-18T15:18:01;39.05;;;18.60;;
74898;SDS011;63458;48.210;16.338;2022-12-18T15:20:30;42.30;;;19.13;;
74898;SDS011;63458;48.210;16.338;2022-12-18T15:22:57;34.63;;;17.50;;
74898;SDS011;63458;48.210;16.338;2022-12-18T15:25:34;37.60;;;18.25;;
74898;SDS011;63458;48.210;16.338;2022-12-18T15:28:02;37.22;;;17.88;;
74898;SDS011;63458;48.210;16.338;2022-12-18T15:30:28;42.17;;;19.00;;
74898;SDS011;63458;48.210;16.338;2022-12-18T15:35:39;41.28;;;19.90;;
74898;SDS011;63458;48.210;16.338;2022-12-18T15:38:06;36.47;;;17.45;;
74898;SDS011;63458;48.210;16.338;2022-12-18T15:40:32;38.00;;;18.30;;
74898;SDS011;63458;48.210;16.338;2022-12-18T15:42:59;32.92;;;17.08;;
74898;SDS011;63458;48.210;16.338;2022-12-18T15:45:43;34.85;;;17.88;;
74898;SDS011;63458;48.210;16.338;2022-12-18T15:48:20;38.63;;;16.23;;
74898;SDS011;63458;48.210;16.338;2022-12-18T15:50:46;34.58;;;16.67;;
74898;SDS011;63458;48.210;16.338;2022-12-18T15:53:13;35.38;;;16.70;;
74898;SDS011;63458;48.210;16.338;2022-12-18T15:55:39;33.78;;;17.08;;
74898;SDS011;63458;48.210;16.338;2022-12-18T15:58:24;36.03;;;17.98;;
74898;SDS011;63458;48.210;16.338;2022-12-18T16:00:50;34.65;;;17.65;;
74898;SDS011;63458;48.210;16.338;2022-12-18T16:03:17;35.83;;;18.05;;
74898;SDS011;63458;48.210;16.338;2022-12-18T16:05:43;35.47;;;16.35;;
74898;SDS011;63458;48.210;16.338;2022-12-18T16:08:09;36.90;;;19.27;;
74898;SDS011;63458;48.210;16.338;2022-12-18T16:10:36;38.28;;;17.98;;
74898;SDS011;63458;48.210;16.338;2022-12-18T16:13:02;35.38;;;16.95;;
74898;SDS011;63458;48.210;16.338;2022-12-18T16:15:28;34.25;;;17.50;;
74898;SDS011;63458;48.210;16.338;2022-12-18T16:17:55;37.58;;;17.95;;
74898;SDS011;63458;48.210;16.338;2022-12-18T16:20:21;39.92;;;18.60;;